Time;durP1;ratioP1;P1;durP2;ratioP2;P2;SDS_P1;SDS_P2;PMS_P1;PMS_P2;Temp;Humidity;BMP_temperature;BMP_pressure;BME280_temperature;BME280_humidity;BME280_pressure;Samples;Min_cycle;Max_cycle;Signal;HPM_P1;HPM_P2
2023/11/27 00:01:57;;;;;;;10.02;4.45;;;;;5.60;98113.00;;;;4917979;29;20050;-62
2023/11/27 00:04:24;;;;;;;12.90;6.80;;;;;5.60;98112.00;;;;4917590;29;20143;-64
2023/11/27 00:06:51;;;;;;;11.88;5.32;;;;;5.50;98105.00;;;;4917955;29;20074;-63
2023/11/27 00:09:18;;;;;;;11.38;4.70;;;;;5.60;98112.00;;;;4917010;29;20059;-63
2023/11/27 00:11:44;;;;;;;16.25;6.80;;;;;5.60;98103.00;;;;4917827;29;20051;-64
2023/11/27 00:14:11;;;;;;;20.77;8.65;;;;;5.50;98095.00;;;;4917506;29;20054;-64
2023/11/27 00:16:38;;;;;;;19.02;8.23;;;;;5.50;98096.00;;;;4917119;29;20091;-64
2023/11/27 00:19:04;;;;;;;8.40;5.68;;;;;5.50;98085.00;;;;4916738;29;20103;-62
2023/11/27 00:21:31;;;;;;;14.52;7.05;;;;;5.50;98082.00;;;;4900614;29;20107;-60
2023/11/27 00:23:57;;;;;;;10.98;5.38;;;;;5.50;98087.00;;;;4916894;29;20044;-63
2023/11/27 00:26:27;;;;;;;13.98;4.63;;;;;5.40;98072.00;;;;4916215;29;20166;-62
2023/11/27 00:28:55;;;;;;;11.15;5.40;;;;;5.40;98077.00;;;;4916080;29;20052;-63
2023/11/27 00:31:22;;;;;;;11.10;4.93;;;;;5.40;98064.00;;;;4915961;29;20076;-62
2023/11/27 00:33:49;;;;;;;7.40;4.75;;;;;5.50;98073.00;;;;4915412;29;20055;-62
2023/11/27 00:36:17;;;;;;;9.10;4.85;;;;;5.50;98071.00;;;;4915920;29;20063;-63
2023/11/27 00:38:44;;;;;;;11.38;4.93;;;;;5.50;98074.00;;;;4915994;29;20103;-63
2023/11/27 00:41:14;;;;;;;5.22;4.38;;;;;5.60;98074.00;;;;4917184;29;20074;-64
2023/11/27 00:43:42;;;;;;;11.90;4.70;;;;;5.50;98063.00;;;;4915378;29;20052;-64
2023/11/27 00:46:10;;;;;;;8.45;4.25;;;;;5.50;98054.00;;;;4916129;29;20055;-64
2023/11/27 00:48:37;;;;;;;9.15;4.38;;;;;5.60;98064.00;;;;4917519;29;20047;-63
2023/11/27 00:51:05;;;;;;;9.88;4.40;;;;;5.60;98065.00;;;;4915682;29;20045;-64
2023/11/27 00:53:31;;;;;;;7.90;4.15;;;;;5.50;98056.00;;;;4916314;29;20134;-64
2023/11/27 00:55:58;;;;;;;9.02;4.85;;;;;5.50;98058.00;;;;4916914;29;20104;-64
2023/11/27 00:58:25;;;;;;;10.05;4.35;;;;;5.60;98058.00;;;;4917407;29;20044;-64
2023/11/27 01:00:53;;;;;;;10.50;4.63;;;;;5.60;98050.00;;;;4917272;29;20131;-66
2023/11/27 01:03:21;;;;;;;8.88;4.57;;;;;5.60;98049.00;;;;4916684;29;20047;-63
2023/11/27 01:05:48;;;;;;;9.82;3.58;;;;;5.50;98051.00;;;;4915509;29;20054;-64
2023/11/27 01:08:15;;;;;;;9.48;4.03;;;;;5.60;98054.00;;;;4916510;29;20127;-63
2023/11/27 01:10:44;;;;;;;7.07;3.65;;;;;5.60;98052.00;;;;4915489;29;20498;-64
2023/11/27 01:13:11;;;;;;;12.88;4.25;;;;;5.50;98041.00;;;;4916489;29;20123;-64
2023/11/27 01:15:38;;;;;;;8.93;4.03;;;;;5.50;98047.00;;;;4914597;29;20055;-66
2023/11/27 01:18:05;;;;;;;10.70;4.40;;;;;5.60;98048.00;;;;4915320;29;20055;-64
2023/11/27 01:20:31;;;;;;;6.25;4.13;;;;;5.60;98038.00;;;;4916593;29;20414;-64
2023/11/27 01:22:58;;;;;;;9.32;3.85;;;;;5.60;98033.00;;;;4916447;29;20115;-64
2023/11/27 01:25:25;;;;;;;13.70;4.10;;;;;5.50;98030.00;;;;4914540;29;20040;-64
2023/11/27 01:27:52;;;;;;;8.40;3.92;;;;;5.40;98018.00;;;;4916263;29;20052;-64
2023/11/27 01:30:19;;;;;;;8.18;4.35;;;;;5.40;98016.00;;;;4916313;29;20561;-64
2023/11/27 01:32:46;;;;;;;9.80;4.03;;;;;5.50;98018.00;;;;4914951;29;20084;-64
2023/11/27 01:35:13;;;;;;;7.95;3.85;;;;;5.50;98018.00;;;;4915674;29;20076;-64
2023/11/27 01:37:40;;;;;;;9.55;3.85;;;;;5.40;98013.00;;;;4914956;29;20051;-64
2023/11/27 01:40:07;;;;;;;6.20;3.90;;;;;5.40;98001.00;;;;4899390;29;20048;-64
2023/11/27 01:42:34;;;;;;;9.38;4.05;;;;;5.50;98000.00;;;;4916079;29;20070;-64
2023/11/27 01:45:01;;;;;;;8.73;4.05;;;;;5.50;97997.00;;;;4915637;29;20434;-64
2023/11/27 01:47:27;;;;;;;8.07;4.20;;;;;5.50;97990.00;;;;4914977;29;20125;-64
2023/11/27 01:49:54;;;;;;;7.70;3.80;;;;;5.40;97997.00;;;;4916190;29;20087;-63
2023/11/27 01:52:20;;;;;;;8.20;3.97;;;;;5.50;97987.00;;;;4914698;29;20048;-64
2023/11/27 01:54:47;;;;;;;9.00;3.63;;;;;5.50;97981.00;;;;4915520;29;20044;-64
2023/11/27 01:57:15;;;;;;;12.00;4.40;;;;;5.50;97978.00;;;;4914726;29;20512;-63
2023/11/27 01:59:46;;;;;;;9.40;4.22;;;;;5.40;97978.00;;;;4914593;29;20103;-64
2023/11/27 02:02:14;;;;;;;8.48;3.85;;;;;5.40;97979.00;;;;4916382;29;20164;-64
2023/11/27 02:04:41;;;;;;;9.05;4.30;;;;;5.40;97970.00;;;;4914019;29;20044;-63
2023/11/27 02:07:10;;;;;;;11.95;4.60;;;;;5.40;97961.00;;;;4914388;29;20048;-64
2023/11/27 02:09:37;;;;;;;9.48;4.20;;;;;5.40;97966.00;;;;4916159;29;20564;-64
2023/11/27 02:12:04;;;;;;;10.23;4.18;;;;;5.40;97955.00;;;;4914687;29;20138;-64
2023/11/27 02:14:31;;;;;;;8.27;4.15;;;;;5.40;97958.00;;;;4913906;29;20506;-63
2023/11/27 02:16:57;;;;;;;12.35;3.92;;;;;5.40;97955.00;;;;4914860;29;20513;-64
2023/11/27 02:19:25;;;;;;;8.77;4.13;;;;;5.40;97951.00;;;;4914671;29;20442;-64
2023/11/27 02:21:52;;;;;;;9.90;3.83;;;;;5.40;97940.00;;;;4914484;29;20091;-64
2023/11/27 02:24:18;;;;;;;7.40;4.10;;;;;5.30;97944.00;;;;4913779;29;20123;-64
2023/11/27 02:26:45;;;;;;;9.93;4.43;;;;;5.30;97933.00;;;;4914486;29;20052;-62
2023/11/27 02:29:12;;;;;;;10.23;4.43;;;;;5.30;97928.00;;;;4914591;29;20051;-63
2023/11/27 02:31:39;;;;;;;9.48;4.13;;;;;5.20;97923.00;;;;4915786;29;20048;-64
2023/11/27 02:34:05;;;;;;;7.47;4.20;;;;;5.30;97932.00;;;;4929651;29;20413;-63
2023/11/27 02:36:38;;;;;;;9.13;3.85;;;;;5.30;97924.00;;;;4915589;29;20048;-63
2023/11/27 02:39:06;;;;;;;9.75;4.25;;;;;5.20;97908.00;;;;4915584;29;20054;-62
2023/11/27 02:41:37;;;;;;;10.25;4.05;;;;;5.20;97913.00;;;;4918301;29;20092;-63
2023/11/27 02:44:05;;;;;;;12.27;4.20;;;;;5.20;97904.00;;;;4918911;29;20134;-62
2023/11/27 02:46:31;;;;;;;9.85;3.90;;;;;5.20;97907.00;;;;4902373;29;20048;-64
2023/11/27 02:48:59;;;;;;;11.32;4.82;;;;;5.30;97906.00;;;;4918104;29;20054;-63
2023/11/27 02:51:26;;;;;;;8.73;4.30;;;;;5.20;97904.00;;;;4917891;29;20043;-63
2023/11/27 02:53:53;;;;;;;8.75;4.13;;;;;5.20;97899.00;;;;4918527;29;20044;-64
2023/11/27 02:56:20;;;;;;;8.18;3.63;;;;;5.20;97882.00;;;;4918131;29;20074;-63
2023/11/27 02:58:47;;;;;;;10.75;4.25;;;;;5.20;97891.00;;;;4918020;29;20445;-64
2023/11/27 03:01:14;;;;;;;10.30;4.15;;;;;5.20;97888.00;;;;4917759;29;20609;-63
2023/11/27 03:03:41;;;;;;;8.68;4.85;;;;;5.20;97884.00;;;;4918276;29;20055;-63
2023/11/27 03:06:08;;;;;;;8.65;3.65;;;;;5.20;97880.00;;;;4918796;29;20576;-62
2023/11/27 03:08:35;;;;;;;10.25;4.47;;;;;5.10;97881.00;;;;4918817;29;20049;-63
2023/11/27 03:11:02;;;;;;;7.03;3.78;;;;;5.10;97882.00;;;;4918877;29;20044;-63
2023/11/27 03:13:28;;;;;;;10.77;3.95;;;;;5.10;97877.00;;;;4917229;29;20076;-62
2023/11/27 03:15:55;;;;;;;12.15;3.65;;;;;5.10;97877.00;;;;4917736;29;20052;-63
2023/11/27 03:18:21;;;;;;;9.13;3.88;;;;;5.00;97866.00;;;;4917427;29;20051;-62
2023/11/27 03:20:48;;;;;;;9.10;4.32;;;;;5.00;97871.00;;;;4918598;29;20112;-65
2023/11/27 03:23:15;;;;;;;12.18;3.70;;;;;4.90;97870.00;;;;4917210;29;20142;-62
2023/11/27 03:25:41;;;;;;;9.27;3.90;;;;;4.90;97865.00;;;;4916654;29;20093;-64
2023/11/27 03:28:08;;;;;;;10.30;4.50;;;;;4.90;97855.00;;;;4918516;29;20127;-64
2023/11/27 03:30:35;;;;;;;11.30;3.92;;;;;4.90;97859.00;;;;4917218;29;20045;-64
2023/11/27 03:33:02;;;;;;;11.48;4.65;;;;;4.90;97858.00;;;;4917034;29;20048;-64
2023/11/27 03:35:29;;;;;;;7.80;4.53;;;;;5.00;97848.00;;;;4917916;29;20413;-64
2023/11/27 03:37:55;;;;;;;9.55;4.15;;;;;4.90;97848.00;;;;4917072;29;20048;-64
2023/11/27 03:40:23;;;;;;;7.75;4.10;;;;;5.00;97851.00;;;;4918310;29;20067;-64
2023/11/27 03:42:50;;;;;;;11.75;4.63;;;;;5.00;97842.00;;;;4918332;29;20044;-64
2023/11/27 03:45:17;;;;;;;7.60;4.00;;;;;5.00;97831.00;;;;4917537;29;20413;-64
2023/11/27 03:47:43;;;;;;;11.27;4.10;;;;;5.00;97830.00;;;;4916832;29;20059;-63
2023/11/27 03:50:13;;;;;;;9.60;4.15;;;;;5.00;97830.00;;;;4931675;29;20052;-64
2023/11/27 03:52:40;;;;;;;12.82;4.55;;;;;5.00;97819.00;;;;4917638;29;20044;-64
2023/11/27 03:55:07;;;;;;;8.18;4.03;;;;;5.00;97816.00;;;;4917386;29;20048;-64
2023/11/27 03:57:34;;;;;;;13.80;4.68;;;;;5.00;97814.00;;;;4918096;29;20051;-64
2023/11/27 04:00:00;;;;;;;8.40;4.68;;;;;5.00;97816.00;;;;4917732;29;20044;-64
2023/11/27 04:02:27;;;;;;;17.15;4.60;;;;;5.00;97810.00;;;;4917813;29;20044;-64
2023/11/27 04:04:53;;;;;;;8.90;4.22;;;;;5.10;97802.00;;;;4916083;29;20103;-65
2023/11/27 04:07:20;;;;;;;6.50;4.43;;;;;5.00;97800.00;;;;4916398;29;20044;-64
2023/11/27 04:09:47;;;;;;;16.90;4.45;;;;;5.00;97803.00;;;;4916607;29;20055;-64
2023/11/27 04:12:15;;;;;;;9.25;4.20;;;;;5.00;97798.00;;;;4917724;29;20127;-65
2023/11/27 04:14:41;;;;;;;8.13;4.22;;;;;4.90;97806.00;;;;4916890;29;20410;-65
2023/11/27 04:17:08;;;;;;;10.45;4.00;;;;;5.00;97794.00;;;;4917485;29;20044;-64
2023/11/27 04:19:35;;;;;;;13.90;4.82;;;;;5.00;97800.00;;;;4917238;29;20115;-64
2023/11/27 04:22:02;;;;;;;9.05;4.55;;;;;5.00;97790.00;;;;4918087;29;20131;-64
2023/11/27 04:24:29;;;;;;;7.00;4.10;;;;;5.00;97785.00;;;;4915975;29;20516;-64
2023/11/27 04:26:55;;;;;;;14.90;4.90;;;;;5.00;97785.00;;;;4916884;29;20056;-64
2023/11/27 04:29:22;;;;;;;11.20;5.13;;;;;5.00;97777.00;;;;4916755;29;20059;-64
2023/11/27 04:31:49;;;;;;;8.55;4.53;;;;;5.10;97789.00;;;;4917604;29;20454;-62
2023/11/27 04:34:15;;;;;;;13.02;5.07;;;;;5.10;97782.00;;;;4915707;29;20079;-64
2023/11/27 04:36:43;;;;;;;10.43;4.85;;;;;5.00;97774.00;;;;4916494;29;20052;-64
2023/11/27 04:39:10;;;;;;;11.48;4.60;;;;;5.00;97791.00;;;;4916283;29;20119;-64
2023/11/27 04:41:43;;;;;;;9.70;4.45;;;;;5.00;97779.00;;;;4917311;29;20131;-65
2023/11/27 04:44:10;;;;;;;13.70;5.05;;;;;5.00;97776.00;;;;4917163;29;20107;-64
2023/11/27 04:46:36;;;;;;;9.15;4.30;;;;;5.00;97773.00;;;;4900212;29;20058;-64
2023/11/27 04:49:03;;;;;;;9.77;4.43;;;;;5.00;97770.00;;;;4916887;29;20055;-64
2023/11/27 04:51:30;;;;;;;10.57;4.60;;;;;5.00;97765.00;;;;4915845;29;20047;-64
2023/11/27 04:53:57;;;;;;;7.25;4.53;;;;;4.90;97756.00;;;;4916211;29;20044;-65
2023/11/27 04:56:24;;;;;;;10.90;5.03;;;;;4.90;97766.00;;;;4915544;29;20052;-64
2023/11/27 04:58:51;;;;;;;9.25;4.40;;;;;4.90;97755.00;;;;4916855;29;20080;-64
2023/11/27 05:01:17;;;;;;;11.88;4.55;;;;;4.90;97747.00;;;;4916630;29;20123;-63
2023/11/27 05:03:44;;;;;;;12.18;4.53;;;;;4.90;97748.00;;;;4914725;29;20044;-64
2023/11/27 05:06:16;;;;;;;11.88;4.78;;;;;4.80;97740.00;;;;4915517;29;20056;-65
2023/11/27 05:08:45;;;;;;;10.05;4.90;;;;;4.80;97737.00;;;;4915467;29;20122;-64
2023/11/27 05:11:18;;;;;;;6.55;4.32;;;;;4.90;97742.00;;;;4915297;29;20052;-64
2023/11/27 05:13:48;;;;;;;6.50;4.47;;;;;5.00;97737.00;;;;4899205;29;20044;-65
2023/11/27 05:16:15;;;;;;;8.07;4.25;;;;;4.90;97731.00;;;;4916381;29;20044;-64
2023/11/27 05:18:43;;;;;;;8.70;4.38;;;;;4.90;97734.00;;;;4916525;29;20048;-63
2023/11/27 05:21:13;;;;;;;9.15;4.38;;;;;4.90;97725.00;;;;4916637;29;20076;-64
2023/11/27 05:23:43;;;;;;;7.60;4.30;;;;;4.90;97734.00;;;;4914689;29;20503;-64
2023/11/27 05:26:11;;;;;;;10.32;3.95;;;;;5.00;97729.00;;;;4899445;29;20493;-64
2023/11/27 05:28:38;;;;;;;9.27;4.55;;;;;4.90;97716.00;;;;4915403;29;20732;-64
2023/11/27 05:31:05;;;;;;;14.00;4.80;;;;;4.90;97720.00;;;;4915022;29;20075;-64
2023/11/27 05:33:33;;;;;;;11.38;4.60;;;;;4.90;97717.00;;;;4915582;29;20044;-63
2023/11/27 05:36:01;;;;;;;6.40;3.90;;;;;4.90;97712.00;;;;4914753;29;20420;-64
2023/11/27 05:38:28;;;;;;;7.63;3.63;;;;;4.90;97703.00;;;;4916120;29;20123;-64
2023/11/27 05:41:00;;;;;;;7.57;3.75;;;;;4.90;97697.00;;;;4916020;29;20091;-64
2023/11/27 05:43:28;;;;;;;7.68;4.72;;;;;4.90;97689.00;;;;4915458;29;20040;-64
2023/11/27 05:45:56;;;;;;;7.90;3.80;;;;;4.90;97693.00;;;;4915890;29;20139;-64
2023/11/27 05:48:23;;;;;;;13.88;5.68;;;;;4.90;97688.00;;;;4915836;29;20044;-63
2023/11/27 05:50:50;;;;;;;14.45;5.05;;;;;5.00;97687.00;;;;4914844;29;20084;-64
2023/11/27 05:53:16;;;;;;;8.90;4.20;;;;;5.00;97683.00;;;;4915771;29;20071;-64
2023/11/27 05:55:43;;;;;;;8.55;3.75;;;;;4.90;97681.00;;;;4914059;29;20079;-64
2023/11/27 05:58:09;;;;;;;11.05;4.50;;;;;4.90;97674.00;;;;4915827;29;20122;-64
2023/11/27 06:00:36;;;;;;;9.43;4.45;;;;;4.90;97671.00;;;;4915816;29;20467;-64
2023/11/27 06:03:03;;;;;;;9.25;3.95;;;;;4.90;97665.00;;;;4914575;29;20040;-64
2023/11/27 06:05:29;;;;;;;11.38;4.00;;;;;4.90;97670.00;;;;4914894;29;20059;-63
2023/11/27 06:07:56;;;;;;;8.93;3.90;;;;;4.90;97672.00;;;;4915540;29;20058;-62
2023/11/27 06:10:23;;;;;;;8.05;4.07;;;;;4.90;97664.00;;;;4914645;29;20114;-61
2023/11/27 06:12:50;;;;;;;7.07;4.05;;;;;4.90;97663.00;;;;4915625;29;20068;-63
2023/11/27 06:15:17;;;;;;;9.73;4.20;;;;;4.90;97667.00;;;;4918112;29;20478;-61
2023/11/27 06:17:44;;;;;;;6.82;3.42;;;;;4.90;97649.00;;;;4919602;29;20130;-63
2023/11/27 06:20:14;;;;;;;9.60;3.60;;;;;4.90;97648.00;;;;4919554;29;20589;-61
2023/11/27 06:22:41;;;;;;;9.05;3.72;;;;;4.90;97646.00;;;;4919575;29;20103;-61
2023/11/27 06:25:09;;;;;;;7.00;3.92;;;;;4.90;97645.00;;;;4918899;29;20553;-62
2023/11/27 06:27:36;;;;;;;10.35;3.58;;;;;4.90;97650.00;;;;4919464;29;20481;-64
2023/11/27 06:30:03;;;;;;;12.50;4.88;;;;;4.90;97637.00;;;;4917972;29;20052;-62
2023/11/27 06:32:30;;;;;;;8.77;3.67;;;;;4.90;97640.00;;;;4919261;29;20473;-62
2023/11/27 06:34:57;;;;;;;6.45;3.70;;;;;4.90;97639.00;;;;4918693;29;20055;-62
2023/11/27 06:37:23;;;;;;;10.32;3.65;;;;;4.90;97634.00;;;;4918141;29;20135;-62
2023/11/27 06:39:50;;;;;;;9.93;4.03;;;;;4.90;97635.00;;;;4920043;29;20071;-63
2023/11/27 06:42:17;;;;;;;9.20;3.20;;;;;4.90;97629.00;;;;4920387;29;20056;-62
2023/11/27 06:44:43;;;;;;;8.68;4.15;;;;;4.90;97623.00;;;;4918457;29;20056;-62
2023/11/27 06:47:10;;;;;;;12.48;4.38;;;;;4.80;97623.00;;;;4919008;29;20054;-62
2023/11/27 06:49:36;;;;;;;9.57;4.18;;;;;4.80;97611.00;;;;4919116;29;20127;-62
2023/11/27 06:52:03;;;;;;;6.60;3.20;;;;;4.70;97612.00;;;;4919012;29;20048;-62
2023/11/27 06:54:30;;;;;;;6.97;3.88;;;;;4.70;97607.00;;;;4916995;29;20048;-62
2023/11/27 06:56:56;;;;;;;8.52;3.67;;;;;4.70;97609.00;;;;4919145;29;20066;-62
2023/11/27 06:59:23;;;;;;;8.68;3.78;;;;;4.70;97603.00;;;;4919879;29;20044;-63
2023/11/27 07:01:49;;;;;;;9.40;3.40;;;;;4.70;97594.00;;;;4919316;29;20052;-62
2023/11/27 07:04:16;;;;;;;8.63;4.38;;;;;4.70;97590.00;;;;4916971;29;20076;-62
2023/11/27 07:06:43;;;;;;;13.15;4.05;;;;;4.70;97595.00;;;;4918708;29;20438;-62
2023/11/27 07:09:10;;;;;;;7.18;3.20;;;;;4.70;97583.00;;;;4918714;29;20040;-63
2023/11/27 07:11:37;;;;;;;7.07;3.78;;;;;4.70;97587.00;;;;4919030;29;20119;-63
2023/11/27 07:14:03;;;;;;;8.02;3.60;;;;;4.70;97576.00;;;;4917934;29;20058;-63
2023/11/27 07:16:30;;;;;;;9.40;3.30;;;;;4.70;97571.00;;;;4918029;29;20060;-62
2023/11/27 07:18:57;;;;;;;7.30;3.35;;;;;4.80;97572.00;;;;4919562;29;20070;-64
2023/11/27 07:21:27;;;;;;;7.20;3.60;;;;;4.80;97564.00;;;;4918625;29;20044;-63
2023/11/27 07:23:54;;;;;;;9.50;4.10;;;;;4.80;97559.00;;;;4918061;29;20059;-63
2023/11/27 07:26:21;;;;;;;8.02;3.67;;;;;4.80;97560.00;;;;4916826;29;20048;-62
2023/11/27 07:28:48;;;;;;;7.35;3.70;;;;;4.80;97559.00;;;;4932832;29;20124;-62
2023/11/27 07:31:16;;;;;;;5.95;3.20;;;;;4.80;97547.00;;;;4917029;29;20116;-62
2023/11/27 07:33:44;;;;;;;7.05;3.38;;;;;4.90;97537.00;;;;4917702;29;20438;-62
2023/11/27 07:36:11;;;;;;;9.88;3.17;;;;;4.90;97547.00;;;;4916882;29;20043;-63
2023/11/27 07:38:40;;;;;;;6.43;3.67;;;;;4.90;97534.00;;;;4916956;29;20104;-62
2023/11/27 07:41:07;;;;;;;7.07;4.22;;;;;4.90;97533.00;;;;4918175;29;20052;-63
2023/11/27 07:43:34;;;;;;;7.70;4.10;;;;;5.00;97536.00;;;;4917597;29;20123;-61
2023/11/27 07:46:05;;;;;;;14.27;4.72;;;;;5.00;97522.00;;;;4918606;29;20119;-60
2023/11/27 07:48:36;;;;;;;10.30;4.07;;;;;5.00;97519.00;;;;4918066;29;20494;-61
2023/11/27 07:51:07;;;;;;;9.65;3.35;;;;;5.00;97519.00;;;;4918002;29;20453;-62
2023/11/27 07:53:34;;;;;;;8.43;4.25;;;;;5.00;97518.00;;;;4917219;29;20135;-61
2023/11/27 07:56:01;;;;;;;10.15;3.72;;;;;5.00;97510.00;;;;4917889;29;20055;-62
2023/11/27 07:58:28;;;;;;;8.85;4.47;;;;;5.00;97516.00;;;;4916691;29;20048;-62
2023/11/27 08:00:55;;;;;;;10.57;3.65;;;;;5.00;97520.00;;;;4917835;29;20048;-62
2023/11/27 08:03:21;;;;;;;7.10;3.38;;;;;5.00;97513.00;;;;4916467;29;20044;-61
2023/11/27 08:05:48;;;;;;;6.90;3.75;;;;;5.00;97517.00;;;;4917460;29;20099;-61
2023/11/27 08:08:15;;;;;;;9.63;3.45;;;;;5.00;97510.00;;;;4917567;29;20052;-62
2023/11/27 08:10:42;;;;;;;9.88;3.95;;;;;5.00;97500.00;;;;4917576;29;20099;-61
2023/11/27 08:13:09;;;;;;;9.50;4.53;;;;;5.10;97503.00;;;;4917367;29;20138;-61
2023/11/27 08:15:36;;;;;;;6.40;3.60;;;;;5.10;97494.00;;;;4916952;29;20056;-61
2023/11/27 08:18:04;;;;;;;8.57;4.10;;;;;5.20;97495.00;;;;4917710;29;20569;-61
2023/11/27 08:20:32;;;;;;;6.32;3.40;;;;;5.30;97494.00;;;;4917618;29;20478;-61
2023/11/27 08:22:59;;;;;;;6.40;3.58;;;;;5.30;97495.00;;;;4917450;29;20621;-61
2023/11/27 08:25:26;;;;;;;6.65;3.25;;;;;5.20;97495.00;;;;4916723;29;20139;-61
2023/11/27 08:27:57;;;;;;;8.80;4.07;;;;;5.20;97493.00;;;;4917279;29;20474;-63
2023/11/27 08:30:27;;;;;;;9.82;3.67;;;;;5.30;97496.00;;;;4917194;29;20052;-61
2023/11/27 08:32:54;;;;;;;7.30;3.22;;;;;5.30;97490.00;;;;4916001;29;20075;-62
2023/11/27 08:35:20;;;;;;;8.25;3.35;;;;;5.30;97482.00;;;;4916479;29;20052;-61
2023/11/27 08:37:47;;;;;;;9.80;3.78;;;;;5.30;97479.00;;;;4916392;29;20056;-60
2023/11/27 08:40:14;;;;;;;7.93;3.95;;;;;5.20;97475.00;;;;4917306;29;20044;-62
2023/11/27 08:42:41;;;;;;;11.27;3.88;;;;;5.20;97474.00;;;;4917705;29;20048;-61
2023/11/27 08:45:16;;;;;;;5.60;3.58;;;;;5.20;97477.00;;;;4916808;29;20122;-61
2023/11/27 08:47:50;;;;;;;12.68;3.70;;;;;5.10;97469.00;;;;4918060;29;20071;-60
2023/11/27 08:50:21;;;;;;;7.75;4.32;;;;;5.10;97459.00;;;;4917254;29;20514;-61
2023/11/27 08:52:48;;;;;;;7.82;3.47;;;;;5.10;97454.00;;;;4915946;29;20557;-62
2023/11/27 08:55:28;;;;;;;5.57;3.72;;;;;5.10;97453.00;;;;4916622;29;20090;-61
2023/11/27 08:58:00;;;;;;;6.18;3.60;;;;;5.10;97447.00;;;;4916104;29;20052;-62
2023/11/27 09:00:28;;;;;;;8.63;3.63;;;;;5.10;97438.00;;;;4916791;29;20516;-62
2023/11/27 09:02:57;;;;;;;6.50;3.42;;;;;5.10;97432.00;;;;4915661;29;20044;-62
2023/11/27 09:05:30;;;;;;;8.27;3.58;;;;;5.00;97425.00;;;;4916066;29;20059;-61
2023/11/27 09:08:00;;;;;;;13.27;3.35;;;;;5.00;97423.00;;;;4915431;29;20055;-61
2023/11/27 09:10:27;;;;;;;6.15;3.40;;;;;5.00;97419.00;;;;4931089;29;20048;-63
2023/11/27 09:12:55;;;;;;;7.60;3.80;;;;;5.00;97414.00;;;;4916174;29;20056;-62
2023/11/27 09:15:22;;;;;;;11.55;3.58;;;;;5.00;97398.00;;;;4917909;29;20090;-61
2023/11/27 09:17:49;;;;;;;9.75;4.32;;;;;5.00;97409.00;;;;4917528;29;20553;-61
2023/11/27 09:20:16;;;;;;;9.95;4.38;;;;;5.00;97399.00;;;;4918353;29;20082;-61
2023/11/27 09:22:43;;;;;;;8.73;3.85;;;;;5.00;97397.00;;;;4916975;29;20079;-63
2023/11/27 09:25:12;;;;;;;9.88;3.63;;;;;5.00;97384.00;;;;4916040;29;20036;-62
2023/11/27 09:27:39;;;;;;;8.65;4.38;;;;;5.10;97393.00;;;;4916337;29;20044;-62
2023/11/27 09:30:07;;;;;;;9.35;3.60;;;;;5.10;97392.00;;;;4916336;29;20047;-61
2023/11/27 09:32:35;;;;;;;9.60;4.03;;;;;5.10;97388.00;;;;4916296;29;20498;-61
2023/11/27 09:35:04;;;;;;;4.57;3.28;;;;;5.10;97384.00;;;;4914515;29;20048;-62
2023/11/27 09:37:32;;;;;;;9.23;4.32;;;;;5.10;97380.00;;;;4916208;29;20047;-60
2023/11/27 09:40:04;;;;;;;4.68;3.30;;;;;5.10;97383.00;;;;4916465;29;20052;-60
2023/11/27 09:42:35;;;;;;;7.50;3.80;;;;;5.00;97377.00;;;;4930587;29;20044;-63
2023/11/27 09:45:16;;;;;;;7.75;3.65;;;;;4.90;97379.00;;;;4915476;29;20036;-63
2023/11/27 09:47:43;;;;;;;6.90;4.00;;;;;4.80;97368.00;;;;4916058;29;20135;-63
2023/11/27 09:50:12;;;;;;;10.82;5.00;;;;;4.70;97367.00;;;;4914900;29;20044;-63
2023/11/27 09:52:52;;;;;;;10.00;5.63;;;;;4.70;97364.00;;;;4914849;29;20688;-64
2023/11/27 09:55:22;;;;;;;10.40;4.50;;;;;4.60;97359.00;;;;4915194;29;20165;-63
2023/11/27 09:57:49;;;;;;;5.35;4.10;;;;;4.70;97359.00;;;;4916341;29;20044;-63
2023/11/27 10:00:21;;;;;;;11.57;4.63;;;;;4.80;97352.00;;;;4916044;29;20048;-63
2023/11/27 10:02:48;;;;;;;10.05;4.25;;;;;4.80;97348.00;;;;4930574;29;20087;-63
2023/11/27 10:05:23;;;;;;;14.38;6.25;;;;;4.70;97339.00;;;;4915271;29;20048;-63
2023/11/27 10:07:56;;;;;;;16.88;6.68;;;;;4.70;97326.00;;;;4915718;29;20048;-63
2023/11/27 10:10:27;;;;;;;12.43;5.78;;;;;4.70;97320.00;;;;4915996;29;20427;-64
2023/11/27 10:12:57;;;;;;;9.73;3.95;;;;;4.80;97326.00;;;;4915973;29;20475;-63
2023/11/27 10:15:27;;;;;;;8.93;3.38;;;;;4.80;97303.00;;;;4913867;29;20123;-64
2023/11/27 10:17:59;;;;;;;7.60;3.13;;;;;4.90;97298.00;;;;4915813;29;20053;-63
2023/11/27 10:20:29;;;;;;;5.05;2.80;;;;;4.90;97285.00;;;;4915814;29;20131;-63
2023/11/27 10:22:58;;;;;;;6.43;3.55;;;;;4.80;97271.00;;;;4915963;29;20517;-64
2023/11/27 10:25:25;;;;;;;5.40;2.88;;;;;4.90;97265.00;;;;4915131;29;20054;-62
2023/11/27 10:27:57;;;;;;;5.82;2.85;;;;;4.80;97254.00;;;;4915982;29;20079;-64
2023/11/27 10:30:26;;;;;;;5.15;3.58;;;;;4.80;97247.00;;;;4914413;29;20052;-65
2023/11/27 10:32:53;;;;;;;3.92;2.85;;;;;4.90;97247.00;;;;4915620;29;20127;-64
2023/11/27 10:35:23;;;;;;;7.07;3.33;;;;;4.90;97232.00;;;;4914948;29;20044;-61
2023/11/27 10:37:50;;;;;;;7.88;3.22;;;;;4.90;97231.00;;;;4915748;29;20417;-61
2023/11/27 10:40:18;;;;;;;5.28;2.92;;;;;4.90;97212.00;;;;4915537;29;20107;-60
2023/11/27 10:42:49;;;;;;;11.68;4.80;;;;;4.80;97210.00;;;;4914387;29;20059;-61
2023/11/27 10:45:20;;;;;;;7.57;3.90;;;;;4.80;97215.00;;;;4914905;29;20044;-61
2023/11/27 10:47:50;;;;;;;7.63;4.53;;;;;4.80;97202.00;;;;4916046;29;20052;-63
2023/11/27 10:50:18;;;;;;;9.75;4.35;;;;;4.80;97204.00;;;;4915770;29;20083;-62
2023/11/27 10:52:49;;;;;;;6.20;3.40;;;;;4.80;97196.00;;;;4915358;29;20052;-63
2023/11/27 10:55:17;;;;;;;8.70;3.80;;;;;4.70;97191.00;;;;4929495;29;20055;-63
2023/11/27 10:57:45;;;;;;;7.85;3.28;;;;;4.80;97181.00;;;;4915550;29;20044;-63
2023/11/27 11:00:24;;;;;;;6.07;3.70;;;;;4.70;97172.00;;;;4916563;29;20047;-63
2023/11/27 11:02:54;;;;;;;9.98;5.03;;;;;4.60;97167.00;;;;4919225;29;20040;-63
2023/11/27 11:05:26;;;;;;;8.07;4.35;;;;;4.60;97158.00;;;;4918259;29;20044;-62
2023/11/27 11:07:55;;;;;;;5.88;3.70;;;;;4.70;97148.00;;;;4918900;29;20107;-62
2023/11/27 11:10:26;;;;;;;5.28;3.75;;;;;4.70;97150.00;;;;4918955;29;20048;-62
2023/11/27 11:12:57;;;;;;;7.47;4.05;;;;;4.70;97148.00;;;;4917702;29;20048;-64
2023/11/27 11:15:33;;;;;;;7.15;4.15;;;;;4.70;97134.00;;;;4918009;29;20051;-64
2023/11/27 11:18:43;;;;;;;10.73;4.15;;;;;4.80;97123.00;;;;4918756;29;20075;-64
2023/11/27 11:21:39;;;;;;;4.45;3.13;;;;;4.60;97121.00;;;;4935302;29;20075;-64
2023/11/27 11:24:12;;;;;;;9.23;3.90;;;;;4.60;97115.00;;;;4917001;29;20050;-64
2023/11/27 11:27:17;;;;;;;5.07;2.90;;;;;4.50;97102.00;;;;4917403;29;20048;-64
2023/11/27 11:29:44;;;;;;;3.95;2.85;;;;;4.50;97101.00;;;;4917251;29;20490;-62
2023/11/27 11:32:16;;;;;;;7.32;2.95;;;;;4.50;97099.00;;;;4917197;29;20545;-65
2023/11/27 11:34:51;;;;;;;4.43;3.45;;;;;4.50;97089.00;;;;4917802;29;20375;-64
2023/11/27 11:37:20;;;;;;;4.25;2.83;;;;;4.40;97078.00;;;;4918540;29;20404;-64
2023/11/27 11:39:53;;;;;;;5.88;4.03;;;;;4.40;97084.00;;;;4918391;29;20129;-64
2023/11/27 11:42:29;;;;;;;4.55;2.95;;;;;4.50;97084.00;;;;4917125;29;20062;-64
2023/11/27 11:45:17;;;;;;;3.40;3.00;;;;;4.30;97080.00;;;;4917510;29;20051;-64
2023/11/27 11:47:56;;;;;;;3.28;2.10;;;;;4.20;97081.00;;;;4932605;29;20108;-64
2023/11/27 11:50:26;;;;;;;4.78;2.47;;;;;4.00;97079.00;;;;4901338;29;20136;-64
2023/11/27 11:52:57;;;;;;;4.05;2.75;;;;;3.90;97063.00;;;;4918039;29;20096;-64
2023/11/27 11:55:32;;;;;;;2.45;1.98;;;;;4.00;97053.00;;;;4917341;29;20047;-64
2023/11/27 11:58:22;;;;;;;2.08;1.70;;;;;3.90;97064.00;;;;4916959;29;20052;-65
2023/11/27 12:01:00;;;;;;;3.13;2.15;;;;;3.80;97052.00;;;;4916703;29;20054;-64
2023/11/27 12:03:31;;;;;;;3.97;2.22;;;;;3.80;97043.00;;;;4916321;29;20051;-64
2023/11/27 12:06:02;;;;;;;4.20;2.28;;;;;3.80;97032.00;;;;4917887;29;20410;-65
2023/11/27 12:08:30;;;;;;;4.70;2.30;;;;;3.80;97028.00;;;;4932417;29;20532;-64
2023/11/27 12:10:58;;;;;;;5.38;2.35;;;;;3.80;97028.00;;;;4917293;29;20052;-63
2023/11/27 12:13:33;;;;;;;4.82;2.10;;;;;3.80;97019.00;;;;4931351;29;20040;-64
2023/11/27 12:16:12;;;;;;;3.80;2.65;;;;;3.80;97013.00;;;;4916435;29;20055;-64
2023/11/27 12:18:50;;;;;;;3.63;2.03;;;;;3.80;97007.00;;;;4916902;29;20040;-65
2023/11/27 12:21:22;;;;;;;5.47;2.70;;;;;3.80;97000.00;;;;4917952;29;20047;-64
2023/11/27 12:23:50;;;;;;;2.70;2.30;;;;;3.90;97002.00;;;;4931937;29;20040;-64
2023/11/27 12:26:24;;;;;;;3.10;2.50;;;;;4.00;96992.00;;;;4917750;29;20569;-64
2023/11/27 12:28:52;;;;;;;3.03;2.30;;;;;4.00;96983.00;;;;4917523;29;20051;-64
2023/11/27 12:31:20;;;;;;;2.22;1.92;;;;;4.00;96978.00;;;;4916137;29;20143;-65